Time;durP1;ratioP1;P1;durP2;ratioP2;P2;SDS_P1;SDS_P2;PMS_P1;PMS_P2;Temp;Humidity;BMP_temperature;BMP_pressure;BME280_temperature;BME280_humidity;BME280_pressure;Samples;Min_cycle;Max_cycle;Signal;HPM_P1;HPM_P2
2022/01/18 00:04:05;;;;;;;0.20;0.10;;;7.50;99.90;;;;;;25587994;23;20416;-68
2022/01/18 00:14:21;;;;;;;0.20;0.03;;;7.40;99.90;;;;;;25587957;23;20245;-66
2022/01/18 00:24:27;;;;;;;0.20;0.00;;;7.00;99.90;;;;;;25587595;23;20289;-67
2022/01/18 00:34:34;;;;;;;0.20;0.07;;;7.20;99.90;;;;;;25588298;23;20216;-66
2022/01/18 00:44:39;;;;;;;0.20;0.00;;;7.40;99.90;;;;;;25586716;23;20220;-66
2022/01/18 00:54:45;;;;;;;0.20;0.13;;;7.50;99.90;;;;;;25587965;23;20245;-66
2022/01/18 01:04:51;;;;;;;0.20;0.10;;;7.50;99.90;;;;;;25586946;23;20555;-66
2022/01/18 06:58:01;;;;;;;0.20;0.10;;;6.20;99.90;;;;;;25564216;23;20656;-72
2022/01/18 07:08:05;;;;;;;0.20;0.10;;;6.20;99.90;;;;;;25557428;23;20281;-73
2022/01/18 07:18:11;;;;;;;0.20;0.20;;;6.30;99.90;;;;;;25585233;23;20182;-72
2022/01/18 07:28:17;;;;;;;0.20;0.00;;;6.20;99.90;;;;;;25589289;23;20208;-72
2022/01/18 07:38:22;;;;;;;0.20;0.10;;;6.30;99.90;;;;;;25589051;23;20194;-70
2022/01/18 07:48:26;;;;;;;0.20;0.00;;;6.30;99.90;;;;;;25587760;23;20890;-66
2022/01/18 07:58:32;;;;;;;0.20;0.10;;;6.40;99.90;;;;;;25583846;23;20206;-66
2022/01/18 08:08:39;;;;;;;0.70;0.30;;;6.60;99.90;;;;;;25585093;23;20186;-74
2022/01/18 08:18:44;;;;;;;0.20;0.10;;;6.90;99.90;;;;;;25584327;23;20273;-76
2022/01/18 08:28:48;;;;;;;0.20;0.00;;;7.30;99.90;;;;;;25586499;23;20224;-76
2022/01/18 08:38:54;;;;;;;0.20;0.10;;;7.50;99.90;;;;;;25583536;23;20265;-75
2022/01/18 08:48:58;;;;;;;0.20;0.00;;;7.80;99.90;;;;;;25584979;23;20170;-73
2022/01/18 08:59:03;;;;;;;0.20;0.03;;;7.90;99.90;;;;;;25580843;23;20209;-76
2022/01/18 09:09:08;;;;;;;0.20;0.00;;;8.00;99.90;;;;;;25555399;23;20211;-67
2022/01/18 09:19:15;;;;;;;0.20;0.10;;;8.30;99.90;;;;;;25583139;23;20232;-67
2022/01/18 09:29:19;;;;;;;0.20;0.10;;;8.80;99.90;;;;;;25555456;23;20170;-67
2022/01/18 09:39:25;;;;;;;4.83;4.53;;;9.20;99.90;;;;;;25583560;23;20268;-70
2022/01/18 09:49:29;;;;;;;0.20;0.00;;;9.60;99.90;;;;;;25554675;23;20256;-70
2022/01/18 09:59:35;;;;;;;0.20;0.10;;;10.00;99.90;;;;;;25573478;23;20292;-71
2022/01/18 10:09:39;;;;;;;0.20;0.10;;;10.40;99.90;;;;;;25573312;23;20261;-70
2022/01/18 10:19:49;;;;;;;0.20;0.10;;;11.00;99.90;;;;;;25563224;23;20189;-72
2022/01/18 10:29:53;;;;;;;0.20;0.00;;;11.80;99.90;;;;;;25564081;23;20180;-74
2022/01/18 10:40:00;;;;;;;0.20;0.10;;;12.50;99.90;;;;;;25572235;23;20232;-79
2022/01/18 10:50:09;;;;;;;0.20;0.20;;;13.00;99.90;;;;;;25569332;23;20639;-76
2022/01/18 11:00:17;;;;;;;0.20;0.00;;;14.00;99.90;;;;;;25545232;23;20206;-76
2022/01/18 11:10:23;;;;;;;0.20;0.00;;;14.70;99.90;;;;;;25572502;23;20174;-80
2022/01/18 11:20:32;;;;;;;0.20;0.10;;;15.10;99.90;;;;;;25573885;23;20220;-78
2022/01/18 11:30:38;;;;;;;0.23;0.17;;;15.00;99.90;;;;;;25574200;23;20504;-78
2022/01/18 11:40:48;;;;;;;0.20;0.07;;;15.10;99.90;;;;;;25571168;23;20193;-77
2022/01/18 11:51:05;;;;;;;0.20;0.10;;;16.20;99.90;;;;;;25570221;23;20619;-77
2022/01/18 12:01:12;;;;;;;0.20;0.10;;;16.00;99.90;;;;;;25543738;23;20636;-76
2022/01/18 12:11:36;;;;;;;0.70;0.43;;;15.80;99.90;;;;;;25543205;23;20205;-80
2022/01/18 12:21:46;;;;;;;0.20;0.10;;;16.90;99.90;;;;;;25546409;23;20198;-75
2022/01/18 12:52:57;;;;;;;0.20;0.20;;;18.00;99.90;;;;;;25544864;23;20261;-79
2022/01/18 13:03:02;;;;;;;0.20;0.10;;;18.10;99.90;;;;;;25542111;23;20563;-75
2022/01/18 13:13:09;;;;;;;0.20;0.10;;;18.20;99.90;;;;;;25541597;23;20261;-76
2022/01/18 13:23:14;;;;;;;0.20;0.20;;;18.80;99.90;;;;;;25565481;23;20276;-77
2022/01/18 13:33:18;;;;;;;0.20;0.10;;;19.20;99.90;;;;;;25558281;23;20613;-75
2022/01/18 13:43:28;;;;;;;1.27;1.17;;;18.70;99.90;;;;;;25567705;23;20196;-78
2022/01/18 13:53:34;;;;;;;0.20;0.10;;;18.30;99.90;;;;;;25568315;23;20219;-80
2022/01/18 14:03:42;;;;;;;0.20;0.00;;;18.30;99.90;;;;;;25565705;23;20210;-68
2022/01/18 14:13:46;;;;;;;0.20;0.10;;;18.60;99.90;;;;;;25571536;23;20170;-68
2022/01/18 14:24:07;;;;;;;0.20;0.10;;;18.70;99.90;;;;;;25574460;23;20481;-68
2022/01/18 14:34:11;;;;;;;0.20;0.07;;;19.80;99.90;;;;;;25571652;23;20159;-69
2022/01/18 14:44:34;;;;;;;0.20;0.07;;;19.20;99.90;;;;;;25573542;23;20194;-68
2022/01/18 14:54:40;;;;;;;0.20;0.10;;;19.20;99.90;;;;;;25570579;23;20558;-67
2022/01/18 15:04:47;;;;;;;0.70;0.70;;;18.80;99.90;;;;;;25540094;23;20205;-67
2022/01/18 15:14:50;;;;;;;0.20;0.10;;;17.40;99.90;;;;;;25542150;23;20175;-68
2022/01/18 15:24:56;;;;;;;0.20;0.10;;;17.50;99.90;;;;;;25537905;23;20198;-68
2022/01/18 15:34:59;;;;;;;0.20;0.00;;;18.10;99.90;;;;;;25568086;23;20270;-71
2022/01/18 15:45:06;;;;;;;0.20;0.10;;;17.00;99.90;;;;;;25538273;23;20628;-71
2022/01/18 15:55:10;;;;;;;0.20;0.10;;;16.90;99.90;;;;;;25566457;23;20188;-67
2022/01/18 16:05:15;;;;;;;0.20;0.10;;;16.40;99.90;;;;;;25562546;23;20209;-67
2022/01/18 16:15:19;;;;;;;0.20;0.10;;;15.80;99.90;;;;;;25564149;23;20612;-68
2022/01/18 16:25:25;;;;;;;0.20;0.10;;;14.00;99.90;;;;;;25564653;23;20640;-66
2022/01/18 16:35:30;;;;;;;0.20;0.10;;;13.00;99.90;;;;;;25561554;23;20177;-65
2022/01/18 16:45:36;;;;;;;0.20;0.10;;;12.70;99.90;;;;;;25536118;23;20201;-66
2022/01/18 16:55:40;;;;;;;0.20;0.00;;;12.20;99.90;;;;;;25564398;23;20232;-67
2022/01/18 17:05:45;;;;;;;0.20;0.10;;;11.90;99.90;;;;;;25561501;23;20683;-68
2022/01/18 17:15:49;;;;;;;0.20;0.00;;;11.70;99.90;;;;;;25561806;23;20200;-66
2022/01/18 17:25:55;;;;;;;0.20;0.10;;;11.30;99.90;;;;;;25562767;23;20198;-67
2022/01/18 17:35:58;;;;;;;0.20;0.10;;;11.00;99.90;;;;;;25560263;23;20181;-67
2022/01/18 17:46:04;;;;;;;0.20;0.07;;;10.50;99.90;;;;;;25569951;23;20236;-69
2022/01/18 17:56:08;;;;;;;0.20;0.00;;;10.20;99.90;;;;;;25575474;23;20250;-69
2022/01/18 18:06:13;;;;;;;0.20;0.10;;;10.10;99.90;;;;;;25574307;23;20308;-70
2022/01/18 18:16:17;;;;;;;0.20;0.10;;;9.80;99.90;;;;;;25580534;23;20531;-67
2022/01/18 18:26:22;;;;;;;0.20;0.00;;;9.70;99.90;;;;;;25579457;23;20593;-66
2022/01/18 18:36:30;;;;;;;0.30;0.30;;;9.50;99.90;;;;;;25554736;23;20196;-66
2022/01/18 18:46:36;;;;;;;0.20;0.03;;;9.10;99.90;;;;;;25580822;23;20273;-69
2022/01/18 18:56:41;;;;;;;0.20;0.10;;;9.00;99.90;;;;;;25582958;23;20174;-67
2022/01/18 19:06:46;;;;;;;0.20;0.10;;;8.90;99.90;;;;;;25586541;23;20280;-66
2022/01/18 19:16:49;;;;;;;0.83;0.83;;;8.80;99.90;;;;;;25580269;23;20185;-65
2022/01/18 19:26:55;;;;;;;0.20;0.10;;;8.60;99.90;;;;;;25557065;23;20280;-69
2022/01/18 19:37:00;;;;;;;0.20;0.10;;;8.40;99.90;;;;;;25582968;23;20241;-69
2022/01/18 19:47:05;;;;;;;0.20;0.10;;;8.20;99.90;;;;;;25584123;23;20281;-69
2022/01/18 19:57:09;;;;;;;0.20;0.00;;;8.20;99.90;;;;;;25555941;23;20266;-66
2022/01/18 20:07:14;;;;;;;0.20;0.00;;;7.90;99.90;;;;;;25579269;23;20224;-74
2022/01/18 20:17:19;;;;;;;0.20;0.00;;;7.90;99.90;;;;;;25582377;23;20250;-75
2022/01/18 20:27:34;;;;;;;0.20;0.10;;;7.70;99.90;;;;;;25555532;23;20305;-74
2022/01/18 20:37:38;;;;;;;0.20;0.00;;;7.60;99.90;;;;;;25553984;23;20194;-73
2022/01/18 20:47:44;;;;;;;0.20;0.00;;;7.50;99.90;;;;;;25551443;23;20194;-65
2022/01/18 20:57:48;;;;;;;0.20;0.00;;;7.60;99.90;;;;;;25553875;23;20216;-69
2022/01/18 21:07:53;;;;;;;0.20;0.00;;;7.50;99.90;;;;;;25578287;23;20193;-69
2022/01/18 21:17:57;;;;;;;0.20;0.00;;;7.50;99.90;;;;;;25579597;23;20265;-68
2022/01/18 21:28:03;;;;;;;0.40;0.40;;;7.40;99.90;;;;;;25550749;23;20201;-68
2022/01/18 21:38:07;;;;;;;0.20;0.03;;;7.20;99.90;;;;;;25584115;23;20564;-70
2022/01/18 21:48:12;;;;;;;0.20;0.00;;;7.10;99.90;;;;;;25577824;23;20672;-69
2022/01/18 21:58:16;;;;;;;0.20;0.00;;;7.20;99.90;;;;;;25577229;23;20732;-70
2022/01/18 22:08:21;;;;;;;0.20;0.00;;;7.30;99.90;;;;;;25577023;23;20194;-69
2022/01/18 22:18:25;;;;;;;0.20;0.00;;;7.40;99.90;;;;;;25578015;23;20178;-65
2022/01/18 22:28:30;;;;;;;0.20;0.00;;;7.60;99.90;;;;;;25576569;23;20186;-64
2022/01/18 22:38:34;;;;;;;0.20;0.00;;;7.80;99.90;;;;;;25584026;23;20176;-64
2022/01/18 22:48:39;;;;;;;0.20;0.00;;;7.80;99.90;;;;;;25584179;23;20699;-69
2022/01/18 22:58:43;;;;;;;0.20;0.10;;;8.00;99.90;;;;;;25583690;23;20285;-69
2022/01/18 23:08:48;;;;;;;0.33;0.33;;;8.10;99.90;;;;;;25584368;23;20236;-67
2022/01/18 23:18:52;;;;;;;0.20;0.00;;;8.00;99.90;;;;;;25582899;23;20170;-67
2022/01/18 23:28:59;;;;;;;0.20;0.00;;;8.10;99.90;;;;;;25582912;23;20202;-66
2022/01/18 23:39:14;;;;;;;0.20;0.00;;;8.20;99.90;;;;;;25556096;23;20563;-66
2022/01/18 23:49:19;;;;;;;0.20;0.00;;;8.30;99.90;;;;;;25584075;23;20190;-71
2022/01/18 23:59:23;;;;;;;0.20;0.00;;;8.40;99.90;;;;;;25562330;23;20293;-72
